createdAt,value
2022-10-07T00:00:00.300Z,75
2022-10-07T00:05:00.210Z,75
2022-10-07T00:10:00.254Z,75
2022-10-07T00:15:00.243Z,75
2022-10-07T00:20:00.234Z,75
2022-10-07T00:25:00.197Z,76
2022-10-07T00:30:00.297Z,75
2022-10-07T00:35:00.245Z,75
2022-10-07T00:40:00.226Z,75
2022-10-07T00:45:00.185Z,76
2022-10-07T00:50:00.274Z,76
2022-10-07T00:55:00.215Z,76
2022-10-07T01:00:00.252Z,76
2022-10-07T01:05:00.229Z,76
2022-10-07T01:10:00.193Z,76
2022-10-07T01:15:00.163Z,76
2022-10-07T01:20:00.214Z,76
2022-10-07T01:25:00.300Z,76
2022-10-07T01:30:00.262Z,76
2022-10-07T01:35:00.187Z,77
2022-10-07T01:40:00.283Z,77
2022-10-07T01:45:00.281Z,77
2022-10-07T01:50:00.270Z,77
2022-10-07T01:55:00.233Z,77
2022-10-07T02:00:00.266Z,77
2022-10-07T02:05:00.195Z,77
2022-10-07T02:10:00.240Z,77
2022-10-07T02:15:00.236Z,77
2022-10-07T02:20:00.317Z,77
2022-10-07T02:25:00.222Z,77
2022-10-07T02:30:00.253Z,77
2022-10-07T02:35:00.176Z,77
2022-10-07T02:40:00.239Z,77
2022-10-07T02:45:00.195Z,77
2022-10-07T02:50:00.261Z,77
2022-10-07T02:55:00.270Z,77
2022-10-07T03:00:00.311Z,77
2022-10-07T03:05:00.287Z,77
2022-10-07T03:10:00.281Z,77
2022-10-07T03:15:00.253Z,77
2022-10-07T03:20:00.262Z,77
2022-10-07T03:25:00.304Z,77
2022-10-07T03:30:00.331Z,77
2022-10-07T03:35:00.268Z,77
2022-10-07T03:40:00.298Z,78
2022-10-07T03:45:00.290Z,78
2022-10-07T03:50:00.297Z,78
2022-10-07T03:55:00.268Z,78
2022-10-07T04:00:00.326Z,78
2022-10-07T04:05:00.251Z,78
2022-10-07T04:10:00.276Z,78
2022-10-07T04:15:00.242Z,78
2022-10-07T04:20:00.293Z,78
2022-10-07T04:25:00.250Z,78
2022-10-07T04:30:00.335Z,78
2022-10-07T04:35:00.252Z,78
2022-10-07T04:40:01.243Z,78
2022-10-07T04:45:00.260Z,78
2022-10-07T04:50:00.248Z,78
2022-10-07T04:55:00.202Z,78
2022-10-07T05:00:00.348Z,78
2022-10-07T05:05:00.248Z,78
2022-10-07T05:10:00.276Z,78
2022-10-07T05:15:00.251Z,78
2022-10-07T05:20:00.265Z,79
2022-10-07T05:25:00.189Z,79
2022-10-07T05:30:00.306Z,79
2022-10-07T05:35:00.292Z,79
2022-10-07T05:40:00.270Z,79
2022-10-07T05:45:00.273Z,79
2022-10-07T05:50:00.265Z,79
2022-10-07T05:55:00.247Z,79
2022-10-07T06:00:00.326Z,79
2022-10-07T06:05:00.201Z,79
2022-10-07T06:10:00.271Z,79
2022-10-07T06:15:00.286Z,79
2022-10-07T06:20:00.257Z,79
2022-10-07T06:25:00.198Z,79
2022-10-07T06:30:00.313Z,79
2022-10-07T06:35:00.254Z,79
2022-10-07T06:40:00.270Z,79
2022-10-07T06:45:00.255Z,79
2022-10-07T06:50:00.289Z,79
2022-10-07T06:55:00.381Z,79
2022-10-07T07:00:00.313Z,80
2022-10-07T07:05:00.231Z,79
2022-10-07T07:10:00.278Z,79
2022-10-07T07:15:00.281Z,79
2022-10-07T07:20:00.305Z,79
2022-10-07T07:25:00.201Z,80
2022-10-07T07:30:00.274Z,80
2022-10-07T07:35:00.245Z,80
2022-10-07T07:40:00.233Z,80
2022-10-07T07:45:00.237Z,81
2022-10-07T07:50:00.272Z,81
2022-10-07T07:55:00.251Z,82
2022-10-07T08:00:00.290Z,82
2022-10-07T08:05:00.197Z,82
2022-10-07T08:10:00.268Z,82
2022-10-07T08:15:00.215Z,82
2022-10-07T08:20:00.279Z,81
2022-10-07T08:25:00.327Z,81
2022-10-07T08:30:00.259Z,81
2022-10-07T08:35:00.250Z,81
2022-10-07T08:40:00.264Z,80
2022-10-07T08:45:00.204Z,80
2022-10-07T08:50:00.285Z,79
2022-10-07T08:55:00.229Z,79
2022-10-07T09:00:00.269Z,79
2022-10-07T09:05:00.235Z,78
2022-10-07T09:10:00.255Z,77
2022-10-07T09:15:00.269Z,77
2022-10-07T09:20:00.263Z,77
2022-10-07T09:25:00.198Z,77
2022-10-07T09:30:00.328Z,76
2022-10-07T09:35:00.243Z,75
2022-10-07T09:40:00.226Z,75
2022-10-07T09:45:00.270Z,75
2022-10-07T09:50:00.264Z,74
2022-10-07T09:55:00.193Z,74
2022-10-07T10:00:00.287Z,74
2022-10-07T10:05:00.305Z,73
2022-10-07T10:10:00.275Z,72
2022-10-07T10:15:00.192Z,72
2022-10-07T10:20:00.300Z,72
2022-10-07T10:25:00.237Z,71
2022-10-07T10:30:00.339Z,71
2022-10-07T10:35:00.245Z,70
2022-10-07T10:40:00.257Z,70
2022-10-07T10:45:00.202Z,70
2022-10-07T10:50:00.258Z,69
2022-10-07T10:55:00.259Z,69
2022-10-07T11:00:00.334Z,68
2022-10-07T11:05:00.232Z,68
2022-10-07T11:10:00.345Z,68
2022-10-07T11:15:00.278Z,68
2022-10-07T11:20:00.452Z,67
2022-10-07T11:25:00.296Z,67
2022-10-07T11:30:00.288Z,67
2022-10-07T11:35:00.297Z,66
2022-10-07T11:40:00.275Z,66
2022-10-07T11:45:00.250Z,66
2022-10-07T11:50:00.266Z,66
2022-10-07T11:55:00.352Z,66
2022-10-07T12:00:00.307Z,66
2022-10-07T12:05:00.230Z,65
2022-10-07T12:10:00.230Z,65
2022-10-07T12:15:00.303Z,66
2022-10-07T12:20:00.226Z,65
2022-10-07T12:25:00.241Z,64
2022-10-07T12:30:00.385Z,64
2022-10-07T12:35:00.258Z,64
2022-10-07T12:40:00.258Z,64
2022-10-07T12:45:00.203Z,64
2022-10-07T12:50:00.302Z,64
2022-10-07T12:55:00.245Z,63
2022-10-07T13:00:00.306Z,63
2022-10-07T13:05:00.221Z,63
2022-10-07T13:10:00.276Z,63
2022-10-07T13:15:00.201Z,62
2022-10-07T13:20:00.295Z,62
2022-10-07T13:25:00.235Z,63
2022-10-07T13:30:00.528Z,63
2022-10-07T13:35:00.281Z,62
2022-10-07T13:40:00.370Z,62
2022-10-07T13:45:00.262Z,62
2022-10-07T13:50:00.339Z,62
2022-10-07T13:55:00.248Z,62
2022-10-07T14:00:00.477Z,62
2022-10-07T14:05:00.203Z,62
2022-10-07T14:10:00.520Z,62
2022-10-07T14:15:00.265Z,61
2022-10-07T14:20:05.121Z,61
2022-10-07T14:25:00.255Z,61
2022-10-07T14:30:00.309Z,60
2022-10-07T14:35:00.217Z,61
2022-10-07T14:40:00.294Z,60
2022-10-07T14:45:00.284Z,60
2022-10-07T14:50:00.289Z,60
2022-10-07T14:55:00.250Z,60
2022-10-07T15:00:00.310Z,60
2022-10-07T15:05:00.389Z,60
2022-10-07T15:10:00.284Z,60
2022-10-07T15:15:00.245Z,60
2022-10-07T15:20:00.233Z,60
2022-10-07T15:25:00.206Z,60
2022-10-07T15:30:00.311Z,60
2022-10-07T15:35:00.271Z,60
2022-10-07T15:40:00.253Z,60
2022-10-07T15:45:00.194Z,60
2022-10-07T15:50:00.242Z,60
2022-10-07T15:55:05.077Z,60
2022-10-07T16:00:00.258Z,60
2022-10-07T16:05:00.195Z,60
2022-10-07T16:10:00.264Z,60
2022-10-07T16:15:00.228Z,60
2022-10-07T16:20:00.254Z,60
2022-10-07T16:25:00.274Z,60
2022-10-07T16:30:00.283Z,60
2022-10-07T16:35:00.282Z,61
2022-10-07T16:40:00.280Z,61
2022-10-07T16:45:00.244Z,61
2022-10-07T16:50:00.292Z,61
2022-10-07T16:55:00.197Z,61
2022-10-07T17:00:00.283Z,62
2022-10-07T17:05:00.220Z,62
2022-10-07T17:10:00.264Z,62
2022-10-07T17:15:00.242Z,63
2022-10-07T17:20:00.235Z,63
2022-10-07T17:25:00.249Z,63
2022-10-07T17:30:00.279Z,63
2022-10-07T17:35:00.250Z,63
2022-10-07T17:40:00.280Z,64
2022-10-07T17:45:00.276Z,64
2022-10-07T17:50:00.251Z,64
2022-10-07T17:55:00.248Z,65
2022-10-07T18:00:00.284Z,65
2022-10-07T18:05:00.269Z,65
2022-10-07T18:10:00.237Z,65
2022-10-07T18:15:00.280Z,66
2022-10-07T18:20:00.232Z,66
2022-10-07T18:25:00.337Z,66
2022-10-07T18:30:00.321Z,66
2022-10-07T18:35:00.231Z,67
2022-10-07T18:40:00.221Z,67
2022-10-07T18:45:00.286Z,68
2022-10-07T18:50:00.299Z,68
2022-10-07T18:55:00.245Z,68
2022-10-07T19:00:00.338Z,68
2022-10-07T19:05:00.231Z,69
2022-10-07T19:10:00.252Z,69
2022-10-07T19:15:00.584Z,69
2022-10-07T19:20:00.249Z,69
2022-10-07T19:25:00.279Z,70
2022-10-07T19:30:00.295Z,70
2022-10-07T19:35:00.289Z,70
2022-10-07T19:40:00.311Z,70
2022-10-07T19:45:00.261Z,71
2022-10-07T19:50:00.328Z,71
2022-10-07T19:55:00.265Z,71
2022-10-07T20:00:00.279Z,71
2022-10-07T20:05:00.296Z,72
2022-10-07T20:10:00.267Z,72
2022-10-07T20:15:00.235Z,72
2022-10-07T20:20:00.247Z,72
2022-10-07T20:25:00.212Z,72
2022-10-07T20:30:00.309Z,72
2022-10-07T20:35:00.252Z,72
2022-10-07T20:40:00.290Z,72
2022-10-07T20:45:00.289Z,73
2022-10-07T20:50:00.267Z,73
2022-10-07T20:55:00.265Z,73
2022-10-07T21:00:00.297Z,73
2022-10-07T21:05:00.213Z,73
2022-10-07T21:10:00.216Z,73
2022-10-07T21:15:00.142Z,73
2022-10-07T21:20:00.261Z,73
2022-10-07T21:25:00.177Z,74
2022-10-07T21:30:00.212Z,74
2022-10-07T21:35:00.211Z,74
2022-10-07T21:40:00.213Z,74
2022-10-07T21:45:00.201Z,74
2022-10-07T21:50:00.206Z,74
2022-10-07T21:55:00.155Z,74
2022-10-07T22:00:00.276Z,74
2022-10-07T22:05:00.143Z,74
2022-10-07T22:10:00.230Z,75
2022-10-07T22:15:00.139Z,75
2022-10-07T22:20:00.251Z,75
2022-10-07T22:25:00.138Z,75
2022-10-07T22:30:00.215Z,75
2022-10-07T22:35:00.203Z,75
2022-10-07T22:40:00.203Z,75
2022-10-07T22:45:00.197Z,75
2022-10-07T22:50:00.298Z,75
2022-10-07T22:55:00.145Z,75
2022-10-07T23:00:00.266Z,75
2022-10-07T23:05:00.231Z,75
2022-10-07T23:10:00.200Z,75
2022-10-07T23:15:00.217Z,74
2022-10-07T23:20:00.212Z,75
2022-10-07T23:25:00.179Z,75
2022-10-07T23:30:00.236Z,75
2022-10-07T23:35:00.141Z,75
2022-10-07T23:40:00.281Z,75
2022-10-07T23:45:00.232Z,74
2022-10-07T23:50:00.261Z,75
2022-10-07T23:55:00.143Z,75
